ExpreSS Skopelitis — SW3130 — position and weather

sailwx.info

Track history (hours):
 
Tides and Currents Weather Stations Pressure Air Temp Water Temp Dewpoint Dewpoint Depression Visibility Wind Speed Wind Dir Waves Ship Positions

ExpreSS Skopelitis

Last reported at 2014-Oct-20 07:33 UTC. Time now 2014-Oct-20 08:09 UTC.
Position N 36°52' E 025°29'.

Length 45 m; draft 2.4 m.

Type: Passenger vessel. MMSI: 237029400.

Date/timePositionNaut miles runAvg speedWind from/ knotsBaromVisibWave heightAir tempDewpointWater temp
2014-Oct-20 07:33N 36°52' E 025°29'8 8.2
2014-Oct-20 06:33N 36°56' E 025°38'1212.4
2014-Oct-20 05:34N 37°06' E 025°47'10 9.8
2014-Oct-20 04:33N 36°58' E 025°54'6 5.6
2014-Oct-20 03:33N 36°52' E 025°53'3 0.1
2014-Oct-18 17:06N 36°50' E 025°52'3 6.5
2014-Oct-18 16:33N 36°53' E 025°54'6 6.4
2014-Oct-18 15:33N 36°59' E 025°53'8 7.5
2014-Oct-18 14:33N 37°04' E 025°47'1211.8
2014-Oct-18 13:34N 36°56' E 025°37'8 7.7
2014-Oct-18 12:33N 36°52' E 025°28'1110.8
2014-Oct-18 11:33N 37°01' E 025°21'5 5.4
2014-Oct-18 10:33N 37°06' E 025°22'0 0.0
2014-Oct-18 09:33N 37°06' E 025°22'5 4.9
2014-Oct-18 08:34N 37°02' E 025°21'1111.3
2014-Oct-18 07:33N 36°52' E 025°28'7 7.4
2014-Oct-18 06:33N 36°56' E 025°36'1212.0
2014-Oct-18 05:33N 37°05' E 025°46'8 7.8
2014-Oct-18 04:33N 36°59' E 025°53'7 6.9
2014-Oct-18 03:34N 36°52' E 025°54'4 0.3
2014-Oct-17 14:33N 36°50' E 025°50'1212.3
2014-Oct-17 13:33N 36°56' E 025°36'8 6.0
2014-Oct-17 12:17N 36°54' E 025°27'912.4
2014-Oct-17 11:32N 37°02' E 025°21'5 4.7
2014-Oct-17 10:31N 37°06' E 025°22'0 0.0
2014-Oct-17 09:33N 37°06' E 025°22'0 0.0
2014-Oct-17 08:32N 37°06' E 025°22'2 1.8
2014-Oct-17 07:33N 37°06' E 025°20'1211.6
2014-Oct-17 06:34N 36°55' E 025°26'6 5.6
2014-Oct-17 05:33N 36°55' E 025°33'1010.1
2014-Oct-17 04:33N 36°52' E 025°45'6 4.4
2014-Oct-17 03:13N 36°50' E 025°52'0 0.0
2014-Oct-17 02:30N 36°50' E 025°52'0 0.0
2014-Oct-16 22:30N 36°50' E 025°52'0 0.0
2014-Oct-16 21:29N 36°50' E 025°52'0 0.0
2014-Oct-16 18:30N 36°50' E 025°52'0 0.0
2014-Oct-16 15:32N 36°50' E 025°52'5 5.2
2014-Oct-16 14:33N 36°52' E 025°46'1010.3
2014-Oct-16 13:34N 36°55' E 025°34'6 5.5
2014-Oct-16 12:34N 36°54' E 025°27'1212.0
2014-Oct-16 11:33N 37°05' E 025°20'3 2.5
2014-Oct-16 10:33N 37°06' E 025°22'0 0.0
2014-Oct-16 09:33N 37°06' E 025°22'0 0.0
2014-Oct-16 08:33N 37°06' E 025°22'3 2.8
2014-Oct-16 07:33N 37°04' E 025°20'1212.0
2014-Oct-16 06:34N 36°54' E 025°27'5 5.4
2014-Oct-16 05:33N 36°55' E 025°34'10 9.8
2014-Oct-16 04:33N 36°52' E 025°46'6 5.4
2014-Oct-16 03:31N 36°50' E 025°52'0 0.0
2014-Oct-16 02:14N 36°50' E 025°52'0 0.0
2014-Oct-15 21:33N 36°50' E 025°52'0 0.0
2014-Oct-15 20:20N 36°50' E 025°52'0 0.0
2014-Oct-15 17:10N 36°50' E 025°52'4 6.6
2014-Oct-15 16:34N 36°53' E 025°55'8 8.0
2014-Oct-15 15:33N 37°00' E 025°52'6 6.2
2014-Oct-15 14:33N 37°04' E 025°45'1110.9
2014-Oct-15 13:34N 36°56' E 025°36'7 7.4
2014-Oct-15 12:34N 36°52' E 025°28'1211.6
2014-Oct-15 11:34N 37°02' E 025°21'5 4.6
2014-Oct-15 10:33N 37°06' E 025°22'0 0.0
2014-Oct-15 09:34N 37°06' E 025°22'3 3.3
2014-Oct-15 08:33N 37°03' E 025°20'1211.9
2014-Oct-15 07:33N 36°53' E 025°28'7 6.7
2014-Oct-15 06:33N 36°56' E 025°36'1111.0
2014-Oct-15 05:33N 37°03' E 025°45'8 7.8
2014-Oct-15 04:33N 36°59' E 025°53'7 7.0
2014-Oct-15 03:33N 36°52' E 025°54'4 0.3
2014-Oct-14 14:33N 36°50' E 025°49'1111.4
2014-Oct-14 13:33N 36°56' E 025°36'7 7.4
2014-Oct-14 12:33N 36°52' E 025°28'1211.9
2014-Oct-14 11:34N 37°02' E 025°21'4 4.4
2014-Oct-14 10:33N 37°06' E 025°22'0 0.0
2014-Oct-14 09:34N 37°06' E 025°22'0 0.0
2014-Oct-14 08:33N 37°06' E 025°22'1 1.4
2014-Oct-14 07:34N 37°06' E 025°21'1111.1
2014-Oct-14 06:34N 36°55' E 025°26'6 5.5
2014-Oct-14 05:34N 36°54' E 025°32'1010.3
2014-Oct-14 04:33N 36°52' E 025°45'6 2.0
2014-Oct-14 01:30N 36°50' E 025°52'0 0.0
2014-Oct-14 00:33N 36°50' E 025°52'0 0.0
2014-Oct-13 23:32N 36°50' E 025°52'0 0.0
2014-Oct-13 19:27N 36°50' E 025°52'1 0.5
2014-Oct-13 17:15N 36°50' E 025°51'3 5.0
2014-Oct-13 16:33N 36°52' E 025°54'7 6.6
2014-Oct-13 15:33N 36°59' E 025°53'7 7.3
2014-Oct-13 14:34N 37°04' E 025°46'1111.3
2014-Oct-13 13:33N 36°56' E 025°36'7 7.4
2014-Oct-13 12:33N 36°52' E 025°28'1111.5
2014-Oct-13 11:34N 37°02' E 025°21'5 4.9
2014-Oct-13 10:34N 37°06' E 025°22'0 0.0
2014-Oct-13 09:34N 37°06' E 025°22'4 4.2
2014-Oct-13 08:33N 37°02' E 025°21'1211.8
2014-Oct-13 07:33N 36°52' E 025°29'7 7.1
2014-Oct-13 06:33N 36°56' E 025°36'1111.1
2014-Oct-13 05:34N 37°04' E 025°46'8 7.8
2014-Oct-13 04:33N 36°59' E 025°54'7 7.0
2014-Oct-13 03:34N 36°52' E 025°54'3 3.2
2014-Oct-13 02:29N 36°50' E 025°52'0 0.0
2014-Oct-11 17:16N 36°50' E 025°52'5 6.9
2014-Oct-11 16:34N 36°53' E 025°56'9 8.5
2014-Oct-11 15:33N 37°01' E 025°52'6 5.9
2014-Oct-11 14:33N 37°02' E 025°45'10 9.9
2014-Oct-11 13:33N 36°55' E 025°35'6 6.2
2014-Oct-11 12:33N 36°52' E 025°28'1211.9
2014-Oct-11 11:33N 37°03' E 025°21'4 4.0
2014-Oct-11 10:33N 37°06' E 025°22'0 0.0
2014-Oct-11 09:33N 37°06' E 025°22'4 4.2
2014-Oct-11 08:33N 37°02' E 025°21'1211.9
2014-Oct-11 07:33N 36°52' E 025°29'7 7.0
2014-Oct-11 06:33N 36°56' E 025°36'1211.8
2014-Oct-11 05:34N 37°05' E 025°46'8 8.3
2014-Oct-11 04:33N 36°59' E 025°54'7 6.7
2014-Oct-11 03:33N 36°52' E 025°54'5 0.4
2014-Oct-10 14:33N 36°51' E 025°48'1110.9
2014-Oct-10 13:33N 36°56' E 025°36'7 7.4
2014-Oct-10 12:33N 36°52' E 025°28'1211.6
2014-Oct-10 11:33N 37°02' E 025°21'5 4.6
2014-Oct-10 10:33N 37°06' E 025°22'0 0.0
2014-Oct-10 09:33N 37°06' E 025°22'0 0.0
2014-Oct-10 08:33N 37°06' E 025°22'  
Track history (hours):
 
Tides and Currents Weather Stations Pressure Air Temp Water Temp Dewpoint Dewpoint Depression Visibility Wind Speed Wind Dir Waves Ship Positions

ExpreSS Skopelitis

Last reported at 2014-Oct-20 07:33 UTC. Time now 2014-Oct-20 08:09 UTC.
Position N 36°52' E 025°29'.

Length 45 m; draft 2.4 m.

Type: Passenger vessel. MMSI: 237029400.

Date/timePositionNaut miles runAvg speedWind from/ knotsBaromVisibWave heightAir tempDewpointWater temp
2014-Oct-20 07:33N 36°52' E 025°29'8 8.2
2014-Oct-20 06:33N 36°56' E 025°38'1212.4
2014-Oct-20 05:34N 37°06' E 025°47'10 9.8
2014-Oct-20 04:33N 36°58' E 025°54'6 5.6
2014-Oct-20 03:33N 36°52' E 025°53'3 0.1
2014-Oct-18 17:06N 36°50' E 025°52'3 6.5
2014-Oct-18 16:33N 36°53' E 025°54'6 6.4
2014-Oct-18 15:33N 36°59' E 025°53'8 7.5
2014-Oct-18 14:33N 37°04' E 025°47'1211.8
2014-Oct-18 13:34N 36°56' E 025°37'8 7.7
2014-Oct-18 12:33N 36°52' E 025°28'1110.8
2014-Oct-18 11:33N 37°01' E 025°21'5 5.4
2014-Oct-18 10:33N 37°06' E 025°22'0 0.0
2014-Oct-18 09:33N 37°06' E 025°22'5 4.9
2014-Oct-18 08:34N 37°02' E 025°21'1111.3
2014-Oct-18 07:33N 36°52' E 025°28'7 7.4
2014-Oct-18 06:33N 36°56' E 025°36'1212.0
2014-Oct-18 05:33N 37°05' E 025°46'8 7.8
2014-Oct-18 04:33N 36°59' E 025°53'7 6.9
2014-Oct-18 03:34N 36°52' E 025°54'4 0.3
2014-Oct-17 14:33N 36°50' E 025°50'1212.3
2014-Oct-17 13:33N 36°56' E 025°36'8 6.0
2014-Oct-17 12:17N 36°54' E 025°27'912.4
2014-Oct-17 11:32N 37°02' E 025°21'5 4.7
2014-Oct-17 10:31N 37°06' E 025°22'0 0.0
2014-Oct-17 09:33N 37°06' E 025°22'0 0.0
2014-Oct-17 08:32N 37°06' E 025°22'2 1.8
2014-Oct-17 07:33N 37°06' E 025°20'1211.6
2014-Oct-17 06:34N 36°55' E 025°26'6 5.6
2014-Oct-17 05:33N 36°55' E 025°33'1010.1
2014-Oct-17 04:33N 36°52' E 025°45'6 4.4
2014-Oct-17 03:13N 36°50' E 025°52'0 0.0
2014-Oct-17 02:30N 36°50' E 025°52'0 0.0
2014-Oct-16 22:30N 36°50' E 025°52'0 0.0
2014-Oct-16 21:29N 36°50' E 025°52'0 0.0
2014-Oct-16 18:30N 36°50' E 025°52'0 0.0
2014-Oct-16 15:32N 36°50' E 025°52'5 5.2
2014-Oct-16 14:33N 36°52' E 025°46'1010.3
2014-Oct-16 13:34N 36°55' E 025°34'6 5.5
2014-Oct-16 12:34N 36°54' E 025°27'1212.0
2014-Oct-16 11:33N 37°05' E 025°20'3 2.5
2014-Oct-16 10:33N 37°06' E 025°22'0 0.0
2014-Oct-16 09:33N 37°06' E 025°22'0 0.0
2014-Oct-16 08:33N 37°06' E 025°22'3 2.8
2014-Oct-16 07:33N 37°04' E 025°20'1212.0
2014-Oct-16 06:34N 36°54' E 025°27'5 5.4
2014-Oct-16 05:33N 36°55' E 025°34'10 9.8
2014-Oct-16 04:33N 36°52' E 025°46'6 5.4
2014-Oct-16 03:31N 36°50' E 025°52'0 0.0
2014-Oct-16 02:14N 36°50' E 025°52'0 0.0
2014-Oct-15 21:33N 36°50' E 025°52'0 0.0
2014-Oct-15 20:20N 36°50' E 025°52'0 0.0
2014-Oct-15 17:10N 36°50' E 025°52'4 6.6
2014-Oct-15 16:34N 36°53' E 025°55'8 8.0
2014-Oct-15 15:33N 37°00' E 025°52'6 6.2
2014-Oct-15 14:33N 37°04' E 025°45'1110.9
2014-Oct-15 13:34N 36°56' E 025°36'7 7.4
2014-Oct-15 12:34N 36°52' E 025°28'1211.6
2014-Oct-15 11:34N 37°02' E 025°21'5 4.6
2014-Oct-15 10:33N 37°06' E 025°22'0 0.0
2014-Oct-15 09:34N 37°06' E 025°22'3 3.3
2014-Oct-15 08:33N 37°03' E 025°20'1211.9
2014-Oct-15 07:33N 36°53' E 025°28'7 6.7
2014-Oct-15 06:33N 36°56' E 025°36'1111.0
2014-Oct-15 05:33N 37°03' E 025°45'8 7.8
2014-Oct-15 04:33N 36°59' E 025°53'7 7.0
2014-Oct-15 03:33N 36°52' E 025°54'4 0.3
2014-Oct-14 14:33N 36°50' E 025°49'1111.4
2014-Oct-14 13:33N 36°56' E 025°36'7 7.4
2014-Oct-14 12:33N 36°52' E 025°28'1211.9
2014-Oct-14 11:34N 37°02' E 025°21'4 4.4
2014-Oct-14 10:33N 37°06' E 025°22'0 0.0
2014-Oct-14 09:34N 37°06' E 025°22'0 0.0
2014-Oct-14 08:33N 37°06' E 025°22'1 1.4
2014-Oct-14 07:34N 37°06' E 025°21'1111.1
2014-Oct-14 06:34N 36°55' E 025°26'6 5.5
2014-Oct-14 05:34N 36°54' E 025°32'1010.3
2014-Oct-14 04:33N 36°52' E 025°45'6 2.0
2014-Oct-14 01:30N 36°50' E 025°52'0 0.0
2014-Oct-14 00:33N 36°50' E 025°52'0 0.0
2014-Oct-13 23:32N 36°50' E 025°52'0 0.0
2014-Oct-13 19:27N 36°50' E 025°52'1 0.5
2014-Oct-13 17:15N 36°50' E 025°51'3 5.0
2014-Oct-13 16:33N 36°52' E 025°54'7 6.6
2014-Oct-13 15:33N 36°59' E 025°53'7 7.3
2014-Oct-13 14:34N 37°04' E 025°46'1111.3
2014-Oct-13 13:33N 36°56' E 025°36'7 7.4
2014-Oct-13 12:33N 36°52' E 025°28'1111.5
2014-Oct-13 11:34N 37°02' E 025°21'5 4.9
2014-Oct-13 10:34N 37°06' E 025°22'0 0.0
2014-Oct-13 09:34N 37°06' E 025°22'4 4.2
2014-Oct-13 08:33N 37°02' E 025°21'1211.8
2014-Oct-13 07:33N 36°52' E 025°29'7 7.1
2014-Oct-13 06:33N 36°56' E 025°36'1111.1
2014-Oct-13 05:34N 37°04' E 025°46'8 7.8
2014-Oct-13 04:33N 36°59' E 025°54'7 7.0
2014-Oct-13 03:34N 36°52' E 025°54'3 3.2
2014-Oct-13 02:29N 36°50' E 025°52'0 0.0
2014-Oct-11 17:16N 36°50' E 025°52'5 6.9
2014-Oct-11 16:34N 36°53' E 025°56'9 8.5
2014-Oct-11 15:33N 37°01' E 025°52'6 5.9
2014-Oct-11 14:33N 37°02' E 025°45'10 9.9
2014-Oct-11 13:33N 36°55' E 025°35'6 6.2
2014-Oct-11 12:33N 36°52' E 025°28'1211.9
2014-Oct-11 11:33N 37°03' E 025°21'4 4.0
2014-Oct-11 10:33N 37°06' E 025°22'0 0.0
2014-Oct-11 09:33N 37°06' E 025°22'4 4.2
2014-Oct-11 08:33N 37°02' E 025°21'1211.9
2014-Oct-11 07:33N 36°52' E 025°29'7 7.0
2014-Oct-11 06:33N 36°56' E 025°36'1211.8
2014-Oct-11 05:34N 37°05' E 025°46'8 8.3
2014-Oct-11 04:33N 36°59' E 025°54'7 6.7
2014-Oct-11 03:33N 36°52' E 025°54'5 0.4
2014-Oct-10 14:33N 36°51' E 025°48'1110.9
2014-Oct-10 13:33N 36°56' E 025°36'7 7.4
2014-Oct-10 12:33N 36°52' E 025°28'1211.6
2014-Oct-10 11:33N 37°02' E 025°21'5 4.6
2014-Oct-10 10:33N 37°06' E 025°22'0 0.0
2014-Oct-10 09:33N 37°06' E 025°22'0 0.0
2014-Oct-10 08:33N 37°06' E 025°22'  

Dump ship's entire track history